Welwyn, United Kingdom
Current Conditions -  °F | °C
As of 4:20 AM on Wednesday 22 Oct 2014 (Local Time) from EGGW Reporting Station
Scattered Clouds Scattered Clouds  
Wind Chill: 35°   Ceiling: Unl
Heat Index: 43°   Visibility: 6mi
Dew Point: 37°   Wind: 16mph
Humidity: 81%   Direction: 270°W
Pressure: 30.18"   Gusts: NA
Location:  51.81°N, 0.18°W
Report Text: EGGW 220320Z 27014KT 9999 SCT047 06/03 Q1022
Loading
Personal Weather Stations






























Interactive Weather Map New forecast layout! Learn more

10-Day Weather Forecast

Advertisements
Track Severe Weather on mobile